sensor_id;sensor_type;location;lat;lon;timestamp;temperature;humidity
34406;DHT22;20658;45.630;8.886;2023-12-20T00:00:10;4.20;99.90
34406;DHT22;20658;45.630;8.886;2023-12-20T00:02:44;3.80;99.90
34406;DHT22;20658;45.630;8.886;2023-12-20T00:05:18;4.20;99.90
34406;DHT22;20658;45.630;8.886;2023-12-20T00:07:52;3.80;99.90
34406;DHT22;20658;45.630;8.886;2023-12-20T00:10:25;3.80;99.90
34406;DHT22;20658;45.630;8.886;2023-12-20T00:12:58;4.30;99.90
34406;DHT22;20658;45.630;8.886;2023-12-20T00:15:33;4.00;99.90
34406;DHT22;20658;45.630;8.886;2023-12-20T00:18:07;3.80;99.90
34406;DHT22;20658;45.630;8.886;2023-12-20T00:20:35;4.20;99.90
34406;DHT22;20658;45.630;8.886;2023-12-20T00:23:08;3.80;99.90
34406;DHT22;20658;45.630;8.886;2023-12-20T00:25:42;4.00;99.90
34406;DHT22;20658;45.630;8.886;2023-12-20T00:28:15;3.80;99.90
34406;DHT22;20658;45.630;8.886;2023-12-20T00:30:50;4.10;99.90
34406;DHT22;20658;45.630;8.886;2023-12-20T00:33:23;4.10;99.90
34406;DHT22;20658;45.630;8.886;2023-12-20T00:35:57;3.80;99.90
34406;DHT22;20658;45.630;8.886;2023-12-20T00:38:30;3.90;99.90
34406;DHT22;20658;45.630;8.886;2023-12-20T00:41:03;3.70;99.90
34406;DHT22;20658;45.630;8.886;2023-12-20T00:43:37;4.20;99.90
34406;DHT22;20658;45.630;8.886;2023-12-20T00:46:11;3.70;99.90
34406;DHT22;20658;45.630;8.886;2023-12-20T00:48:45;3.90;99.90
34406;DHT22;20658;45.630;8.886;2023-12-20T00:51:18;3.70;99.90
34406;DHT22;20658;45.630;8.886;2023-12-20T00:53:51;3.90;99.90
34406;DHT22;20658;45.630;8.886;2023-12-20T00:56:26;3.70;99.90
34406;DHT22;20658;45.630;8.886;2023-12-20T00:58:59;3.80;99.90
34406;DHT22;20658;45.630;8.886;2023-12-20T01:01:34;3.90;99.90
34406;DHT22;20658;45.630;8.886;2023-12-20T01:04:07;3.80;99.90
34406;DHT22;20658;45.630;8.886;2023-12-20T01:06:36;4.10;99.90
34406;DHT22;20658;45.630;8.886;2023-12-20T01:09:09;3.80;99.90
34406;DHT22;20658;45.630;8.886;2023-12-20T01:11:43;3.80;99.90
34406;DHT22;20658;45.630;8.886;2023-12-20T01:14:18;3.70;99.90
34406;DHT22;20658;45.630;8.886;2023-12-20T01:16:52;3.70;99.90
34406;DHT22;20658;45.630;8.886;2023-12-20T01:19:26;3.70;99.90
34406;DHT22;20658;45.630;8.886;2023-12-20T01:22:01;3.90;99.90
34406;DHT22;20658;45.630;8.886;2023-12-20T01:24:34;3.70;99.90
34406;DHT22;20658;45.630;8.886;2023-12-20T01:27:07;4.10;99.90
34406;DHT22;20658;45.630;8.886;2023-12-20T01:29:41;4.10;99.90
34406;DHT22;20658;45.630;8.886;2023-12-20T01:32:15;4.10;99.90
34406;DHT22;20658;45.630;8.886;2023-12-20T01:34:49;3.60;99.90
34406;DHT22;20658;45.630;8.886;2023-12-20T01:37:22;3.90;99.90
34406;DHT22;20658;45.630;8.886;2023-12-20T01:39:57;3.70;99.90
34406;DHT22;20658;45.630;8.886;2023-12-20T01:42:31;3.60;99.90
34406;DHT22;20658;45.630;8.886;2023-12-20T01:45:05;3.60;99.90
34406;DHT22;20658;45.630;8.886;2023-12-20T01:47:40;3.60;99.90
34406;DHT22;20658;45.630;8.886;2023-12-20T01:50:14;4.10;99.90
34406;DHT22;20658;45.630;8.886;2023-12-20T01:52:48;3.70;99.90
34406;DHT22;20658;45.630;8.886;2023-12-20T01:55:24;3.90;99.90
34406;DHT22;20658;45.630;8.886;2023-12-20T01:57:58;3.70;99.90
34406;DHT22;20658;45.630;8.886;2023-12-20T02:00:32;3.90;99.90
34406;DHT22;20658;45.630;8.886;2023-12-20T02:03:08;4.10;99.90
34406;DHT22;20658;45.630;8.886;2023-12-20T02:05:41;3.70;99.90
34406;DHT22;20658;45.630;8.886;2023-12-20T02:08:15;4.10;99.90
34406;DHT22;20658;45.630;8.886;2023-12-20T02:10:48;3.70;99.90
34406;DHT22;20658;45.630;8.886;2023-12-20T02:13:21;4.00;99.90
34406;DHT22;20658;45.630;8.886;2023-12-20T02:15:55;4.00;99.90
34406;DHT22;20658;45.630;8.886;2023-12-20T02:18:30;3.70;99.90
34406;DHT22;20658;45.630;8.886;2023-12-20T02:21:04;3.70;99.90
34406;DHT22;20658;45.630;8.886;2023-12-20T02:23:39;3.70;99.90
34406;DHT22;20658;45.630;8.886;2023-12-20T02:26:13;3.70;99.90
34406;DHT22;20658;45.630;8.886;2023-12-20T02:28:46;3.70;99.90
34406;DHT22;20658;45.630;8.886;2023-12-20T02:31:21;4.20;99.90
34406;DHT22;20658;45.630;8.886;2023-12-20T02:33:54;4.10;99.90
34406;DHT22;20658;45.630;8.886;2023-12-20T02:36:28;3.80;99.90
34406;DHT22;20658;45.630;8.886;2023-12-20T02:39:03;4.10;99.90
34406;DHT22;20658;45.630;8.886;2023-12-20T02:41:36;3.80;99.90
34406;DHT22;20658;45.630;8.886;2023-12-20T02:44:09;3.80;99.90
34406;DHT22;20658;45.630;8.886;2023-12-20T02:46:42;4.30;99.90
34406;DHT22;20658;45.630;8.886;2023-12-20T02:49:16;4.40;99.90
34406;DHT22;20658;45.630;8.886;2023-12-20T02:51:49;3.90;99.90
34406;DHT22;20658;45.630;8.886;2023-12-20T02:54:24;3.90;99.90
34406;DHT22;20658;45.630;8.886;2023-12-20T02:56:57;4.00;99.90
34406;DHT22;20658;45.630;8.886;2023-12-20T02:59:31;4.10;99.90
34406;DHT22;20658;45.630;8.886;2023-12-20T03:02:04;3.90;99.90
34406;DHT22;20658;45.630;8.886;2023-12-20T03:04:37;3.90;99.90
34406;DHT22;20658;45.630;8.886;2023-12-20T03:07:11;3.90;99.90
34406;DHT22;20658;45.630;8.886;2023-12-20T03:09:41;4.40;99.90
34406;DHT22;20658;45.630;8.886;2023-12-20T03:12:14;3.90;99.90
34406;DHT22;20658;45.630;8.886;2023-12-20T03:14:48;3.80;99.90
34406;DHT22;20658;45.630;8.886;2023-12-20T03:17:21;3.80;99.90
34406;DHT22;20658;45.630;8.886;2023-12-20T03:19:55;3.80;99.90
34406;DHT22;20658;45.630;8.886;2023-12-20T03:22:28;4.10;99.90
34406;DHT22;20658;45.630;8.886;2023-12-20T03:25:03;3.70;99.90
34406;DHT22;20658;45.630;8.886;2023-12-20T03:27:37;3.70;99.90
34406;DHT22;20658;45.630;8.886;2023-12-20T03:30:11;4.50;99.90
34406;DHT22;20658;45.630;8.886;2023-12-20T03:32:46;3.70;99.90
34406;DHT22;20658;45.630;8.886;2023-12-20T03:35:19;3.70;99.90
34406;DHT22;20658;45.630;8.886;2023-12-20T03:37:53;3.70;99.90
34406;DHT22;20658;45.630;8.886;2023-12-20T03:40:27;3.90;99.90
34406;DHT22;20658;45.630;8.886;2023-12-20T03:43:01;3.90;99.90
34406;DHT22;20658;45.630;8.886;2023-12-20T03:45:34;3.70;99.90
34406;DHT22;20658;45.630;8.886;2023-12-20T03:48:07;3.90;99.90
34406;DHT22;20658;45.630;8.886;2023-12-20T03:50:40;4.10;99.90
34406;DHT22;20658;45.630;8.886;2023-12-20T03:53:14;3.70;99.90
34406;DHT22;20658;45.630;8.886;2023-12-20T03:55:48;4.10;99.90
34406;DHT22;20658;45.630;8.886;2023-12-20T03:58:22;4.00;99.90
34406;DHT22;20658;45.630;8.886;2023-12-20T04:00:55;3.70;99.90
34406;DHT22;20658;45.630;8.886;2023-12-20T04:03:28;4.10;99.90
34406;DHT22;20658;45.630;8.886;2023-12-20T04:06:02;3.80;99.90
34406;DHT22;20658;45.630;8.886;2023-12-20T04:08:35;3.70;99.90
34406;DHT22;20658;45.630;8.886;2023-12-20T04:11:10;3.80;99.90
34406;DHT22;20658;45.630;8.886;2023-12-20T04:13:43;3.90;99.90
34406;DHT22;20658;45.630;8.886;2023-12-20T04:16:17;3.80;99.90
34406;DHT22;20658;45.630;8.886;2023-12-20T04:18:50;4.00;99.90
34406;DHT22;20658;45.630;8.886;2023-12-20T04:21:23;4.20;99.90
34406;DHT22;20658;45.630;8.886;2023-12-20T04:23:57;4.10;99.90
34406;DHT22;20658;45.630;8.886;2023-12-20T04:26:32;3.90;99.90
34406;DHT22;20658;45.630;8.886;2023-12-20T04:29:05;3.90;99.90
34406;DHT22;20658;45.630;8.886;2023-12-20T04:31:38;3.90;99.90
34406;DHT22;20658;45.630;8.886;2023-12-20T04:34:14;4.10;99.90
34406;DHT22;20658;45.630;8.886;2023-12-20T04:36:53;3.90;99.90
34406;DHT22;20658;45.630;8.886;2023-12-20T04:39:26;4.60;99.90
34406;DHT22;20658;45.630;8.886;2023-12-20T04:42:01;3.90;99.90
34406;DHT22;20658;45.630;8.886;2023-12-20T04:44:34;3.80;99.90
34406;DHT22;20658;45.630;8.886;2023-12-20T04:47:08;3.80;99.90
34406;DHT22;20658;45.630;8.886;2023-12-20T04:49:41;4.10;99.90
34406;DHT22;20658;45.630;8.886;2023-12-20T04:52:14;4.20;99.90
34406;DHT22;20658;45.630;8.886;2023-12-20T04:54:47;3.80;99.90
34406;DHT22;20658;45.630;8.886;2023-12-20T04:57:22;4.30;99.90
34406;DHT22;20658;45.630;8.886;2023-12-20T04:59:55;4.00;99.90
34406;DHT22;20658;45.630;8.886;2023-12-20T05:02:29;3.80;99.90
34406;DHT22;20658;45.630;8.886;2023-12-20T05:05:02;4.20;99.90
34406;DHT22;20658;45.630;8.886;2023-12-20T05:07:36;3.80;99.90
34406;DHT22;20658;45.630;8.886;2023-12-20T05:10:09;3.80;99.90
34406;DHT22;20658;45.630;8.886;2023-12-20T05:12:44;3.80;99.90
34406;DHT22;20658;45.630;8.886;2023-12-20T05:15:17;3.90;99.90
34406;DHT22;20658;45.630;8.886;2023-12-20T05:17:51;4.00;99.90
34406;DHT22;20658;45.630;8.886;2023-12-20T05:20:24;3.80;99.90
34406;DHT22;20658;45.630;8.886;2023-12-20T05:22:57;3.80;99.90
34406;DHT22;20658;45.630;8.886;2023-12-20T05:25:31;3.90;99.90
34406;DHT22;20658;45.630;8.886;2023-12-20T05:28:06;3.80;99.90
34406;DHT22;20658;45.630;8.886;2023-12-20T05:30:39;3.80;99.90
34406;DHT22;20658;45.630;8.886;2023-12-20T05:33:12;4.00;99.90
34406;DHT22;20658;45.630;8.886;2023-12-20T05:35:46;3.80;99.90
34406;DHT22;20658;45.630;8.886;2023-12-20T05:38:19;3.80;99.90
34406;DHT22;20658;45.630;8.886;2023-12-20T05:40:48;3.80;99.90
34406;DHT22;20658;45.630;8.886;2023-12-20T05:43:22;4.20;99.90
34406;DHT22;20658;45.630;8.886;2023-12-20T05:45:55;4.00;99.90
34406;DHT22;20658;45.630;8.886;2023-12-20T05:48:29;4.00;99.90
34406;DHT22;20658;45.630;8.886;2023-12-20T05:51:03;3.80;99.90
34406;DHT22;20658;45.630;8.886;2023-12-20T05:53:37;3.80;99.90
34406;DHT22;20658;45.630;8.886;2023-12-20T05:56:10;4.00;99.90
34406;DHT22;20658;45.630;8.886;2023-12-20T05:58:45;4.00;99.90
34406;DHT22;20658;45.630;8.886;2023-12-20T06:01:18;3.90;99.90
34406;DHT22;20658;45.630;8.886;2023-12-20T06:03:52;3.90;99.90
34406;DHT22;20658;45.630;8.886;2023-12-20T06:06:25;4.50;99.90
34406;DHT22;20658;45.630;8.886;2023-12-20T06:08:58;4.10;99.90
34406;DHT22;20658;45.630;8.886;2023-12-20T06:11:32;4.00;99.90
34406;DHT22;20658;45.630;8.886;2023-12-20T06:14:06;4.00;99.90
34406;DHT22;20658;45.630;8.886;2023-12-20T06:16:40;4.00;99.90
34406;DHT22;20658;45.630;8.886;2023-12-20T06:19:13;4.00;99.90
34406;DHT22;20658;45.630;8.886;2023-12-20T06:21:47;4.30;99.90
34406;DHT22;20658;45.630;8.886;2023-12-20T06:24:20;4.30;99.90
34406;DHT22;20658;45.630;8.886;2023-12-20T06:26:54;4.10;99.90
34406;DHT22;20658;45.630;8.886;2023-12-20T06:29:29;4.10;99.90
34406;DHT22;20658;45.630;8.886;2023-12-20T06:32:03;4.10;99.90
34406;DHT22;20658;45.630;8.886;2023-12-20T06:34:37;4.20;99.90
34406;DHT22;20658;45.630;8.886;2023-12-20T06:37:10;4.20;99.90
34406;DHT22;20658;45.630;8.886;2023-12-20T06:39:44;4.20;99.90
34406;DHT22;20658;45.630;8.886;2023-12-20T06:42:18;4.20;99.90
34406;DHT22;20658;45.630;8.886;2023-12-20T06:44:53;4.30;99.90
34406;DHT22;20658;45.630;8.886;2023-12-20T06:47:26;4.20;99.90
34406;DHT22;20658;45.630;8.886;2023-12-20T06:49:59;4.30;99.90
34406;DHT22;20658;45.630;8.886;2023-12-20T06:52:33;4.30;99.90
34406;DHT22;20658;45.630;8.886;2023-12-20T06:55:01;4.30;99.90
34406;DHT22;20658;45.630;8.886;2023-12-20T06:57:35;4.30;99.90
34406;DHT22;20658;45.630;8.886;2023-12-20T07:00:12;4.30;99.90
34406;DHT22;20658;45.630;8.886;2023-12-20T07:02:46;4.40;99.90
34406;DHT22;20658;45.630;8.886;2023-12-20T07:05:20;4.40;99.90
34406;DHT22;20658;45.630;8.886;2023-12-20T07:07:53;4.80;99.90
34406;DHT22;20658;45.630;8.886;2023-12-20T07:10:26;4.50;99.90
34406;DHT22;20658;45.630;8.886;2023-12-20T07:12:55;4.50;99.90
34406;DHT22;20658;45.630;8.886;2023-12-20T07:15:29;4.50;99.90
34406;DHT22;20658;45.630;8.886;2023-12-20T07:17:57;4.50;99.90
34406;DHT22;20658;45.630;8.886;2023-12-20T07:20:32;4.50;99.90
34406;DHT22;20658;45.630;8.886;2023-12-20T07:23:05;4.60;99.90
34406;DHT22;20658;45.630;8.886;2023-12-20T07:25:39;4.70;99.90
34406;DHT22;20658;45.630;8.886;2023-12-20T07:28:12;4.60;99.90
34406;DHT22;20658;45.630;8.886;2023-12-20T07:30:42;4.60;99.90
34406;DHT22;20658;45.630;8.886;2023-12-20T07:33:15;4.60;99.90
34406;DHT22;20658;45.630;8.886;2023-12-20T07:35:44;4.70;99.90
34406;DHT22;20658;45.630;8.886;2023-12-20T07:38:13;4.70;99.90
34406;DHT22;20658;45.630;8.886;2023-12-20T07:40:41;4.70;99.90
34406;DHT22;20658;45.630;8.886;2023-12-20T07:43:14;4.80;99.90
34406;DHT22;20658;45.630;8.886;2023-12-20T07:45:49;4.80;99.90
34406;DHT22;20658;45.630;8.886;2023-12-20T07:48:22;4.90;99.90
34406;DHT22;20658;45.630;8.886;2023-12-20T07:50:56;5.10;99.90
34406;DHT22;20658;45.630;8.886;2023-12-20T07:53:29;5.00;99.90
34406;DHT22;20658;45.630;8.886;2023-12-20T07:56:13;5.10;99.90
34406;DHT22;20658;45.630;8.886;2023-12-20T07:58:43;5.10;99.90
34406;DHT22;20658;45.630;8.886;2023-12-20T08:01:17;5.10;99.90
34406;DHT22;20658;45.630;8.886;2023-12-20T08:03:51;5.10;99.90
34406;DHT22;20658;45.630;8.886;2023-12-20T08:06:24;5.10;99.90
34406;DHT22;20658;45.630;8.886;2023-12-20T08:08:58;5.10;99.90
34406;DHT22;20658;45.630;8.886;2023-12-20T08:11:31;5.10;99.90
34406;DHT22;20658;45.630;8.886;2023-12-20T08:14:04;5.10;99.90
34406;DHT22;20658;45.630;8.886;2023-12-20T08:16:39;5.20;99.90
34406;DHT22;20658;45.630;8.886;2023-12-20T08:19:12;5.40;99.90
34406;DHT22;20658;45.630;8.886;2023-12-20T08:21:46;5.30;99.90
34406;DHT22;20658;45.630;8.886;2023-12-20T08:24:19;5.30;99.90
34406;DHT22;20658;45.630;8.886;2023-12-20T08:26:52;5.40;99.90
34406;DHT22;20658;45.630;8.886;2023-12-20T08:29:26;5.50;99.90
34406;DHT22;20658;45.630;8.886;2023-12-20T08:32:00;5.40;99.90
34406;DHT22;20658;45.630;8.886;2023-12-20T08:34:34;5.50;99.90
34406;DHT22;20658;45.630;8.886;2023-12-20T08:37:02;5.50;99.90
34406;DHT22;20658;45.630;8.886;2023-12-20T08:39:36;5.50;99.90
34406;DHT22;20658;45.630;8.886;2023-12-20T08:42:09;5.50;99.90
34406;DHT22;20658;45.630;8.886;2023-12-20T08:44:38;5.50;99.90
34406;DHT22;20658;45.630;8.886;2023-12-20T08:47:07;5.60;99.90
34406;DHT22;20658;45.630;8.886;2023-12-20T08:49:39;5.60;99.90
34406;DHT22;20658;45.630;8.886;2023-12-20T08:52:13;5.60;99.90
34406;DHT22;20658;45.630;8.886;2023-12-20T08:54:41;5.60;99.90
34406;DHT22;20658;45.630;8.886;2023-12-20T08:57:09;5.90;99.90
34406;DHT22;20658;45.630;8.886;2023-12-20T08:59:43;5.70;99.90
34406;DHT22;20658;45.630;8.886;2023-12-20T09:02:13;5.80;99.90
34406;DHT22;20658;45.630;8.886;2023-12-20T09:04:42;5.80;99.90
34406;DHT22;20658;45.630;8.886;2023-12-20T09:07:22;5.90;99.90
34406;DHT22;20658;45.630;8.886;2023-12-20T09:09:56;5.90;99.90
34406;DHT22;20658;45.630;8.886;2023-12-20T09:12:24;6.00;99.90
34406;DHT22;20658;45.630;8.886;2023-12-20T09:14:58;6.10;99.90
34406;DHT22;20658;45.630;8.886;2023-12-20T09:17:30;6.00;99.90
34406;DHT22;20658;45.630;8.886;2023-12-20T09:20:01;6.20;99.90
34406;DHT22;20658;45.630;8.886;2023-12-20T09:22:37;6.20;99.90
34406;DHT22;20658;45.630;8.886;2023-12-20T09:25:06;6.30;99.90
34406;DHT22;20658;45.630;8.886;2023-12-20T09:27:40;6.40;99.90
34406;DHT22;20658;45.630;8.886;2023-12-20T09:30:09;6.40;99.90
34406;DHT22;20658;45.630;8.886;2023-12-20T09:32:39;6.50;99.90
34406;DHT22;20658;45.630;8.886;2023-12-20T09:35:12;6.50;99.90
34406;DHT22;20658;45.630;8.886;2023-12-20T09:37:46;6.60;99.90
34406;DHT22;20658;45.630;8.886;2023-12-20T09:40:20;6.60;99.90
34406;DHT22;20658;45.630;8.886;2023-12-20T09:42:57;6.70;99.90
34406;DHT22;20658;45.630;8.886;2023-12-20T09:45:31;7.10;99.90
34406;DHT22;20658;45.630;8.886;2023-12-20T09:48:01;7.00;99.90
34406;DHT22;20658;45.630;8.886;2023-12-20T09:50:31;7.20;99.90
34406;DHT22;20658;45.630;8.886;2023-12-20T09:53:01;7.30;99.50
34406;DHT22;20658;45.630;8.886;2023-12-20T09:55:32;7.50;99.00
34406;DHT22;20658;45.630;8.886;2023-12-20T09:58:01;7.90;98.40
34406;DHT22;20658;45.630;8.886;2023-12-20T10:00:34;7.80;97.60
34406;DHT22;20658;45.630;8.886;2023-12-20T10:03:09;7.90;97.20
34406;DHT22;20658;45.630;8.886;2023-12-20T10:05:47;7.90;96.90
34406;DHT22;20658;45.630;8.886;2023-12-20T10:08:21;7.90;96.50
34406;DHT22;20658;45.630;8.886;2023-12-20T10:10:54;7.90;96.40
34406;DHT22;20658;45.630;8.886;2023-12-20T10:13:24;7.90;96.50
34406;DHT22;20658;45.630;8.886;2023-12-20T10:15:57;8.00;95.60
34406;DHT22;20658;45.630;8.886;2023-12-20T10:18:32;7.90;96.20
34406;DHT22;20658;45.630;8.886;2023-12-20T10:21:06;7.90;95.60
34406;DHT22;20658;45.630;8.886;2023-12-20T10:23:41;8.10;96.10
34406;DHT22;20658;45.630;8.886;2023-12-20T10:26:10;8.10;96.10
34406;DHT22;20658;45.630;8.886;2023-12-20T10:28:44;8.30;95.90
34406;DHT22;20658;45.630;8.886;2023-12-20T10:31:27;8.40;95.50
34406;DHT22;20658;45.630;8.886;2023-12-20T10:34:04;8.50;94.80
34406;DHT22;20658;45.630;8.886;2023-12-20T10:36:38;8.60;94.70
34406;DHT22;20658;45.630;8.886;2023-12-20T10:39:11;8.70;95.40
34406;DHT22;20658;45.630;8.886;2023-12-20T10:41:47;8.80;95.60
34406;DHT22;20658;45.630;8.886;2023-12-20T10:44:21;9.00;95.70
34406;DHT22;20658;45.630;8.886;2023-12-20T10:46:54;8.90;95.50
34406;DHT22;20658;45.630;8.886;2023-12-20T10:49:32;9.00;95.50
34406;DHT22;20658;45.630;8.886;2023-12-20T10:52:08;9.00;95.10
34406;DHT22;20658;45.630;8.886;2023-12-20T10:54:42;9.20;95.10
34406;DHT22;20658;45.630;8.886;2023-12-20T10:57:17;9.20;95.00
34406;DHT22;20658;45.630;8.886;2023-12-20T10:59:53;9.30;95.20
34406;DHT22;20658;45.630;8.886;2023-12-20T11:02:28;9.40;94.90
34406;DHT22;20658;45.630;8.886;2023-12-20T11:05:10;9.50;93.80
34406;DHT22;20658;45.630;8.886;2023-12-20T11:07:44;9.50;92.10
34406;DHT22;20658;45.630;8.886;2023-12-20T11:10:23;9.60;91.30
34406;DHT22;20658;45.630;8.886;2023-12-20T11:12:56;9.60;90.00
34406;DHT22;20658;45.630;8.886;2023-12-20T11:15:34;9.70;89.80
34406;DHT22;20658;45.630;8.886;2023-12-20T11:18:09;9.80;89.90
34406;DHT22;20658;45.630;8.886;2023-12-20T11:20:43;10.00;87.70
34406;DHT22;20658;45.630;8.886;2023-12-20T11:23:17;10.20;86.90
34406;DHT22;20658;45.630;8.886;2023-12-20T11:25:54;10.20;85.60
34406;DHT22;20658;45.630;8.886;2023-12-20T11:28:30;10.20;84.70
34406;DHT22;20658;45.630;8.886;2023-12-20T11:31:03;10.20;84.90
34406;DHT22;20658;45.630;8.886;2023-12-20T11:33:36;10.20;84.50
34406;DHT22;20658;45.630;8.886;2023-12-20T11:36:18;10.20;84.40
34406;DHT22;20658;45.630;8.886;2023-12-20T11:38:56;10.10;85.00
34406;DHT22;20658;45.630;8.886;2023-12-20T11:41:32;9.90;85.20
34406;DHT22;20658;45.630;8.886;2023-12-20T11:44:01;9.80;85.30
34406;DHT22;20658;45.630;8.886;2023-12-20T11:46:34;9.70;84.90
34406;DHT22;20658;45.630;8.886;2023-12-20T11:49:08;9.60;85.60
34406;DHT22;20658;45.630;8.886;2023-12-20T11:51:41;9.60;86.40
34406;DHT22;20658;45.630;8.886;2023-12-20T11:54:16;9.60;86.80
34406;DHT22;20658;45.630;8.886;2023-12-20T11:56:49;9.70;87.00
34406;DHT22;20658;45.630;8.886;2023-12-20T11:59:23;9.60;87.40
34406;DHT22;20658;45.630;8.886;2023-12-20T12:01:56;9.80;87.40
34406;DHT22;20658;45.630;8.886;2023-12-20T12:04:32;10.00;86.20
34406;DHT22;20658;45.630;8.886;2023-12-20T12:07:07;10.10;85.90
34406;DHT22;20658;45.630;8.886;2023-12-20T12:09:40;10.20;85.50
34406;DHT22;20658;45.630;8.886;2023-12-20T12:12:14;10.30;84.90
34406;DHT22;20658;45.630;8.886;2023-12-20T12:14:49;10.30;84.50
34406;DHT22;20658;45.630;8.886;2023-12-20T12:17:22;10.30;83.30
34406;DHT22;20658;45.630;8.886;2023-12-20T12:20:02;10.30;83.40
34406;DHT22;20658;45.630;8.886;2023-12-20T12:22:38;10.40;84.00
34406;DHT22;20658;45.630;8.886;2023-12-20T12:25:12;10.50;83.30
34406;DHT22;20658;45.630;8.886;2023-12-20T12:27:41;10.50;83.20
34406;DHT22;20658;45.630;8.886;2023-12-20T12:30:16;10.40;82.10
34406;DHT22;20658;45.630;8.886;2023-12-20T12:32:50;10.50;82.30
34406;DHT22;20658;45.630;8.886;2023-12-20T12:35:20;10.80;80.40
34406;DHT22;20658;45.630;8.886;2023-12-20T12:37:54;10.60;81.40
34406;DHT22;20658;45.630;8.886;2023-12-20T12:40:28;10.80;81.60
34406;DHT22;20658;45.630;8.886;2023-12-20T12:42:56;10.80;81.30
34406;DHT22;20658;45.630;8.886;2023-12-20T12:45:24;10.80;80.70
34406;DHT22;20658;45.630;8.886;2023-12-20T12:47:53;10.80;78.70
34406;DHT22;20658;45.630;8.886;2023-12-20T12:50:27;10.80;78.50
34406;DHT22;20658;45.630;8.886;2023-12-20T12:53:02;10.80;77.90
34406;DHT22;20658;45.630;8.886;2023-12-20T12:55:35;10.90;77.80
34406;DHT22;20658;45.630;8.886;2023-12-20T12:58:04;10.90;76.80
34406;DHT22;20658;45.630;8.886;2023-12-20T13:00:37;10.90;75.90
34406;DHT22;20658;45.630;8.886;2023-12-20T13:03:11;11.00;76.10
34406;DHT22;20658;45.630;8.886;2023-12-20T13:05:39;11.00;77.10
34406;DHT22;20658;45.630;8.886;2023-12-20T13:08:14;11.00;77.20
34406;DHT22;20658;45.630;8.886;2023-12-20T13:10:48;11.00;77.10
34406;DHT22;20658;45.630;8.886;2023-12-20T13:13:21;11.00;77.70
34406;DHT22;20658;45.630;8.886;2023-12-20T13:15:54;11.00;78.00
34406;DHT22;20658;45.630;8.886;2023-12-20T13:18:27;11.00;79.10
34406;DHT22;20658;45.630;8.886;2023-12-20T13:21:01;11.00;80.00
34406;DHT22;20658;45.630;8.886;2023-12-20T13:23:36;11.00;81.00
34406;DHT22;20658;45.630;8.886;2023-12-20T13:26:09;10.90;81.70
34406;DHT22;20658;45.630;8.886;2023-12-20T13:28:37;10.90;82.10
34406;DHT22;20658;45.630;8.886;2023-12-20T13:31:10;10.90;82.40
34406;DHT22;20658;45.630;8.886;2023-12-20T13:33:39;10.90;82.50
34406;DHT22;20658;45.630;8.886;2023-12-20T13:36:08;10.90;83.30
34406;DHT22;20658;45.630;8.886;2023-12-20T13:38:43;10.80;83.30
34406;DHT22;20658;45.630;8.886;2023-12-20T13:41:16;10.80;83.40
34406;DHT22;20658;45.630;8.886;2023-12-20T13:43:49;10.80;83.20
34406;DHT22;20658;45.630;8.886;2023-12-20T13:46:23;10.80;83.30
34406;DHT22;20658;45.630;8.886;2023-12-20T13:48:56;10.80;83.60
34406;DHT22;20658;45.630;8.886;2023-12-20T13:51:25;10.80;83.80
34406;DHT22;20658;45.630;8.886;2023-12-20T13:53:59;10.80;84.00
34406;DHT22;20658;45.630;8.886;2023-12-20T13:56:28;10.80;83.80
34406;DHT22;20658;45.630;8.886;2023-12-20T13:59:01;10.70;84.00
34406;DHT22;20658;45.630;8.886;2023-12-20T14:01:34;10.70;84.00
34406;DHT22;20658;45.630;8.886;2023-12-20T14:04:03;10.60;83.50
34406;DHT22;20658;45.630;8.886;2023-12-20T14:06:36;10.70;84.10
34406;DHT22;20658;45.630;8.886;2023-12-20T14:09:06;10.70;84.20
34406;DHT22;20658;45.630;8.886;2023-12-20T14:11:35;10.60;84.40
34406;DHT22;20658;45.630;8.886;2023-12-20T14:14:08;10.60;84.50
34406;DHT22;20658;45.630;8.886;2023-12-20T14:16:41;10.60;84.50
34406;DHT22;20658;45.630;8.886;2023-12-20T14:19:11;10.60;85.40
34406;DHT22;20658;45.630;8.886;2023-12-20T14:21:45;10.50;85.80
34406;DHT22;20658;45.630;8.886;2023-12-20T14:24:20;10.40;86.20
34406;DHT22;20658;45.630;8.886;2023-12-20T14:26:53;10.40;86.50
34406;DHT22;20658;45.630;8.886;2023-12-20T14:29:26;10.30;86.50
34406;DHT22;20658;45.630;8.886;2023-12-20T14:31:55;10.20;86.50
34406;DHT22;20658;45.630;8.886;2023-12-20T14:34:28;10.20;86.80
34406;DHT22;20658;45.630;8.886;2023-12-20T14:37:02;10.20;86.90
34406;DHT22;20658;45.630;8.886;2023-12-20T14:39:32;10.10;87.10
34406;DHT22;20658;45.630;8.886;2023-12-20T14:42:06;10.10;87.40
34406;DHT22;20658;45.630;8.886;2023-12-20T14:44:43;10.10;87.80
34406;DHT22;20658;45.630;8.886;2023-12-20T14:47:16;10.00;87.90
34406;DHT22;20658;45.630;8.886;2023-12-20T14:49:49;9.90;88.50
34406;DHT22;20658;45.630;8.886;2023-12-20T14:52:23;9.90;88.80
34406;DHT22;20658;45.630;8.886;2023-12-20T14:54:57;9.80;89.20
34406;DHT22;20658;45.630;8.886;2023-12-20T14:57:26;9.70;90.00
34406;DHT22;20658;45.630;8.886;2023-12-20T14:59:59;9.70;90.00
34406;DHT22;20658;45.630;8.886;2023-12-20T15:02:32;9.60;90.20
34406;DHT22;20658;45.630;8.886;2023-12-20T15:05:06;9.50;90.60
34406;DHT22;20658;45.630;8.886;2023-12-20T15:07:40;9.50;90.90
34406;DHT22;20658;45.630;8.886;2023-12-20T15:10:14;9.40;91.20
34406;DHT22;20658;45.630;8.886;2023-12-20T15:12:48;9.30;91.50
34406;DHT22;20658;45.630;8.886;2023-12-20T15:15:22;9.30;91.90
34406;DHT22;20658;45.630;8.886;2023-12-20T15:17:50;9.20;92.50
34406;DHT22;20658;45.630;8.886;2023-12-20T15:20:24;9.10;93.40
34406;DHT22;20658;45.630;8.886;2023-12-20T15:22:57;9.00;93.70
34406;DHT22;20658;45.630;8.886;2023-12-20T15:25:32;9.00;94.30
34406;DHT22;20658;45.630;8.886;2023-12-20T15:28:01;8.80;94.70
34406;DHT22;20658;45.630;8.886;2023-12-20T15:30:34;8.70;95.70
34406;DHT22;20658;45.630;8.886;2023-12-20T15:33:08;8.60;96.60
34406;DHT22;20658;45.630;8.886;2023-12-20T15:35:41;8.50;97.40
34406;DHT22;20658;45.630;8.886;2023-12-20T15:38:14;8.40;97.50
34406;DHT22;20658;45.630;8.886;2023-12-20T15:40:50;8.40;97.80
34406;DHT22;20658;45.630;8.886;2023-12-20T15:43:18;8.30;98.30
34406;DHT22;20658;45.630;8.886;2023-12-20T15:45:51;8.20;99.00
34406;DHT22;20658;45.630;8.886;2023-12-20T15:48:25;8.10;99.50
34406;DHT22;20658;45.630;8.886;2023-12-20T15:51:04;8.10;99.90
34406;DHT22;20658;45.630;8.886;2023-12-20T15:53:38;8.00;99.90
34406;DHT22;20658;45.630;8.886;2023-12-20T15:56:13;7.90;99.90
34406;DHT22;20658;45.630;8.886;2023-12-20T15:58:46;7.90;99.90
34406;DHT22;20658;45.630;8.886;2023-12-20T16:01:15;7.80;99.90
34406;DHT22;20658;45.630;8.886;2023-12-20T16:03:49;7.70;99.90
34406;DHT22;20658;45.630;8.886;2023-12-20T16:06:22;7.60;99.90
34406;DHT22;20658;45.630;8.886;2023-12-20T16:08:50;7.60;99.90
34406;DHT22;20658;45.630;8.886;2023-12-20T16:11:25;7.50;99.90
34406;DHT22;20658;45.630;8.886;2023-12-20T16:13:58;7.50;99.90
34406;DHT22;20658;45.630;8.886;2023-12-20T16:16:32;7.40;99.90
34406;DHT22;20658;45.630;8.886;2023-12-20T16:19:05;7.30;99.90